Tiempo atmosférico en la estación meteorológica de Villablino, León (958 m.)



Fecha
DESCASC
Temp. máxima en grados centígrados (hora)
DESCASC
Temp. mínima en grados centígrados (hora)
DESCASC
Temp. media en grados centígrados
DESCASC
Racha de viento máxima en m/sg (hora)
DESCASC
Velocidad máxima media en intervalos de 10 minutos(hora)
DESCASC
Precipitaciones diarias en mm
DESCASC
Precipitaciones de 00:00 a 06:00 en mm
DESCASC
Precipitaciones de 06:00 a 12:00 en mm
DESCASC
Precipitaciones de 12:00 a 18:00 en mm
DESCASC
Precipitaciones de 18:00 a 24:00 en mm
DESCASC
16-06-2019 27.3 (18:30) 3.8 (05:50) 15.5 8.89 (18:50) 5 (18:50) 0 0 0 0 0
15-06-2019 21 (18:20) 4.4 (06:50) 12.7 8.89 (18:00) 5 (19:30) 0 0 0 0 0
14-06-2019 20 (15:30) 5.6 (01:50) 12.8 11.11 (13:40) 6.67 (13:50) 0 0 0 0 0
13-06-2019 18.6 (15:20) 5.1 (00:00) 11.9 10.28 (17:10) 6.39 (17:10) 0 0 0 0 0
12-06-2019 16.9 (16:10) 3.5 (00:00) 10.2 8.89 (18:40) 4.72 (18:20) 0.4 0 0.4 0 0
11-06-2019 12.1 (14:50) 5 (00:00) 8.6 9.17 (16:00) 5.28 (16:00) 2.2 1.4 0.8 0 0
10-06-2019 16.5 (15:20) 1.3 (00:00) 8.9 7.5 (16:00) 4.17 (16:50) 0 0 0 0 0
09-06-2019 16.4 (12:50) 6.4 (00:00) 11.4 9.17 (18:30) 5.83 (18:20) 0 0 0 0 0
08-06-2019 19.6 (16:50) 2.3 (00:00) 11 10.83 (17:40) 7.22 (17:40) 0 0 0 0 0
07-06-2019 10.6 (13:40) 4 (00:00) 7.3 13.89 (01:50) 6.67 (14:10) 9.4 6.4 0.4 0.6 2
06-06-2019 14.3 (12:40) 1.9 (00:00) 8.1 19.44 (20:20) 9.17 (20:20) 15.2 0 0 5.4 9.8
05-06-2019 10.6 (16:20) 3.4 (00:00) 7 12.5 (17:50) 6.67 (15:00) 3.6 0.2 2.4 0.2 0.8
04-06-2019 16.8 (00:00) 8.9 (00:00) 12.8 14.17 (14:50) 8.33 (14:30) 0.6 0 0 0.6 0
03-06-2019 26 (17:20) 10.9 (00:00) 18.4 11.39 (19:00) 6.11 (13:00) 0 0 0 0 0
02-06-2019 24.8 (14:00) 7 (00:00) 15.9 11.11 (17:00) 6.39 (15:20) 0 0 0 0 0
01-06-2019 31.1 (17:20) 6.8 (00:00) 19 11.39 (12:50) 6.67 (13:00) 0 0 0 0 0
31-05-2019 32.5 (16:10) 6 (00:00) 19.3 7.22 (21:10) 3.33 (20:50) 0 0 0 0 0
30-05-2019 29.9 (15:20) 4.6 (00:00) 17.2 7.5 (18:40) 4.17 (16:40) 0 0 0 0 0
29-05-2019 24.8 (18:10) 2.2 (00:00) 13.5 7.78 (17:30) 4.17 (17:30) 0 0 0 0 0
28-05-2019 17.5 (17:00) 2 (00:00) 9.8 9.44 (14:10) 5.56 (18:10) 0 0 0 0 0
27-05-2019 19.3 (15:20) 5.8 (00:00) 12.5 9.72 (18:20) 5.83 (18:10) 0 0 0 0 0
26-05-2019 23.7 (15:00) 3.6 (00:00) 13.7 8.61 (16:20) 5.83 (12:00) 0 0 0 0 0
25-05-2019 19.8 (16:00) 2.5 (00:00) 11.1 10 (12:10) 5.83 (16:20) 0 0 0 0 0
24-05-2019 16.1 (17:10) 1.5 (00:00) 8.8 10 (16:00) 5.83 (11:30) 0 0 0 0 0
23-05-2019 21.1 (12:40) 7.1 (00:00) 14.1 12.78 (20:30) 5.56 (20:30) 0 0 0 0 0
22-05-2019 25.3 (17:30) 3.4 (00:00) 14.3 10.56 (14:40) 6.39 (14:50) 0 0 0 0 0

Gráficas

Temp. máximas Temp. mínimas Temp. medias Precipitaciones Rachas de viento máximas Velocidades máximas media en intervalos de 10 minutos

Datos horarios

Fecha y hora oficial Temperatura (ºC) Velocidad del viento (km/h) Dirección del viento Racha (km/h) Dirección de racha Precipitación (mm) Presión (hPa) Tendencia (hPa) Humedad (%)
2019-06-20 23:00:00 10.8 2 Sur 13 Nordeste 0 -- -- 97
2019-06-20 22:00:00 11.1 5 Norte 8 Norte 1.4 -- -- 96
2019-06-20 21:00:00 11.3 2 Noroeste 13 Noroeste 1 -- -- 96
2019-06-20 20:00:00 11.1 5 Norte 12 Norte 5 -- -- 96
2019-06-20 19:00:00 11.3 0 Calma 14 Noroeste 4 -- -- 93
2019-06-20 18:00:00 12.6 8 Nordeste 31 Sudeste 2.8 -- -- 89
2019-06-20 17:00:00 15.8 13 Noroeste 40 Norte 0 -- -- 72
2019-06-20 16:00:00 16.1 22 Noroeste 34 Noroeste 0 -- -- 71
2019-06-20 15:00:00 16.8 17 Noroeste 35 Noroeste 0 -- -- 68
2019-06-20 14:00:00 19.5 10 Noroeste 21 Norte 0 -- -- 57
2019-06-20 13:00:00 19 6 Noroeste 14 Noroeste 0 -- -- 57
2019-06-20 12:00:00 18.1 5 Sur 9 Sur 0 -- -- 61
2019-06-20 11:00:00 17 4 Sur 8 Sudoeste 0 -- -- 68
2019-06-20 10:00:00 15.1 3 Sur 6 Sudeste 0 -- -- 71
2019-06-20 09:00:00 14.2 2 Este 6 Nordeste 0 -- -- 73
2019-06-20 08:00:00 10.3 2 Norte 4 Nordeste 0 -- -- 88
2019-06-20 07:00:00 8.6 4 Norte 7 Norte 0 -- -- 94
2019-06-20 06:00:00 7.9 5 Norte 8 Norte 0 -- -- 97
2019-06-20 05:00:00 7.5 0 Calma 5 Norte 0 -- -- 97
2019-06-20 04:00:00 7.5 3 Norte 9 Norte 0 -- -- 97
2019-06-20 03:00:00 8.2 3 Norte 9 Norte 0 -- -- 97
2019-06-20 02:00:00 9.6 4 Norte 7 Noroeste 0 -- -- 94
2019-06-20 01:00:00 10.6 2 Oeste 6 Sudoeste 0 -- -- 94
2019-06-20 00:00:00 11.7 5 Oeste 9 Norte 0 -- -- 90
2019-06-19 23:00:00 13.2 3 Noroeste 21 Noroeste 0 -- -- 84
2019-06-19 22:00:00 14.8 14 Noroeste 22 Noroeste 0 -- -- 73
2019-06-19 21:00:00 15.7 9 Norte 18 Noroeste 0 -- -- 70
2019-06-19 20:00:00 16.1 11 Noroeste 23 Noroeste 0 -- -- 68
2019-06-19 19:00:00 16.1 15 Norte 27 Noroeste 0 -- -- 70
2019-06-19 18:00:00 17.6 5 Nordeste 32 Sur 0 -- -- 62
2019-06-19 17:00:00 18.2 15 Sur 33 Sur 0 -- -- 59
2019-06-19 16:00:00 18.3 18 Sudoeste 30 Sur 0 -- -- 60
2019-06-19 15:00:00 18.2 13 Sur 36 Sur 0 -- -- 60
2019-06-19 14:00:00 18.1 14 Sur 34 Sur 0 -- -- 61
2019-06-19 13:00:00 16.6 11 Sudoeste 30 Sur -- -- -- 68
2019-06-19 12:00:00 16.1 13 Sur 27 Sur 0 -- -- 72
2019-06-19 11:00:00 14.8 8 Sudoeste 24 Sudoeste 0 -- -- 77
2019-06-19 10:00:00 14.2 9 Sudoeste 21 Sudoeste 0 -- -- 79
2019-06-19 09:00:00 13.6 3 Oeste 23 Sur 0 -- -- 81
2019-06-19 08:00:00 13.1 10 Sur 28 Sur 0 -- -- 81
2019-06-19 07:00:00 13 6 Sudeste 22 Sudoeste 0 -- -- 84
2019-06-19 06:00:00 12.9 6 Sur 25 Sur 0 -- -- 84
2019-06-19 05:00:00 12.8 5 Oeste 33 Sudoeste 0 -- -- 88
2019-06-19 04:00:00 13.8 20 Sur 37 Sur 0 -- -- 82
2019-06-19 03:00:00 13.3 16 Sur 38 Sur 0 -- -- 88
2019-06-19 02:00:00 13.2 21 Sur 38 Sur 0.4 -- -- 89
2019-06-19 01:00:00 13.8 11 Sur 32 Sur 0 -- -- 88
2019-06-19 00:00:00 14 16 Sur 39 Sudoeste 0.6 -- -- 87
2019-06-18 23:00:00 13.3 4 Sur 15 Sur 1.6 -- -- 96
2019-06-18 22:00:00 13.9 6 Sudoeste 30 Sur 0.6 -- -- 89
2019-06-18 21:00:00 13.8 8 Sudeste 17 Sur 1 -- -- 93
2019-06-18 20:00:00 14.2 6 Sur 22 Sur 1.8 -- -- 89
2019-06-18 19:00:00 14.5 10 Sudoeste 22 Sur 0.6 -- -- 85
2019-06-18 18:00:00 15.9 6 Sudoeste 22 Sur 0.2 -- -- 77
2019-06-18 17:00:00 18.7 8 Sudoeste 31 Sur 0 -- -- 62
2019-06-18 16:00:00 16.5 15 Sur 44 Sur 0 -- -- 69
2019-06-18 15:00:00 17.7 16 Sudoeste 36 Sur 0 -- -- 67
2019-06-18 14:00:00 15.9 14 Sudoeste 33 Sur 0 -- -- 71
2019-06-18 13:00:00 16.5 24 Sur 44 Sur 0 -- -- 65
2019-06-18 12:00:00 17.5 17 Sur 37 Sur 0 -- -- 53
2019-06-18 11:00:00 21.7 12 Sudoeste 34 Sur 0 -- -- 35
2019-06-18 10:00:00 15.8 3 Sudeste 8 Sur 0 -- -- 62
2019-06-18 09:00:00 15.5 3 Nordeste 8 Este 0 -- -- 59
2019-06-18 08:00:00 10.4 3 Norte 6 Norte 0 -- -- 72
2019-06-18 07:00:00 6.1 4 Norte 6 Nordeste 0 -- -- 88
2019-06-18 06:00:00 6.5 2 Norte 6 Nordeste 0 -- -- 89
2019-06-18 05:00:00 7.3 3 Norte 7 Norte 0 -- -- 86
2019-06-18 04:00:00 8.1 2 Nordeste 8 Norte 0 -- -- 81
2019-06-18 03:00:00 9.1 5 Norte 8 Norte 0 -- -- 73
2019-06-18 02:00:00 11.1 3 Norte 8 Nordeste 0 -- -- 70
2019-06-18 01:00:00 13.7 5 Norte 10 Sudoeste 0 -- -- 58
2019-06-18 00:00:00 14.5 3 Noroeste 5 Norte 0 -- -- 58
2019-06-17 23:00:00 15.7 2 Sudoeste 6 Oeste 0 -- -- 48
2019-06-17 22:00:00 18.3 7 Sudoeste 32 Sur 0 -- -- 35
2019-06-17 21:00:00 19.6 8 Sudoeste 27 Sur 0 -- -- 35
2019-06-17 20:00:00 20.4 10 Sudoeste 33 Sur 0 -- -- 34
2019-06-17 19:00:00 22 3 Sudoeste 35 Sur 0 -- -- 38
2019-06-17 18:00:00 21.5 15 Sur 43 Sur 0 -- -- 24
2019-06-17 17:00:00 22 22 Sur 44 Sur 0 -- -- 27
2019-06-17 16:00:00 23.7 19 Sur 45 Sudoeste 0 -- -- 32
2019-06-17 15:00:00 24.9 9 Sudoeste 21 Sudoeste 0 -- -- 30
2019-06-17 14:00:00 24.8 11 Sudoeste 29 Sur 0 -- -- 33
2019-06-17 13:00:00 25.5 7 Sur 25 Sudeste 0 -- -- 28
2019-06-17 12:00:00 24.3 9 Sur 14 Sur 0 -- -- 35
2019-06-17 11:00:00 19.6 3 Sur 9 Sur 0 -- -- 58
2019-06-17 10:00:00 16.4 3 Sudeste 7 Sur 0 -- -- 65
2019-06-17 09:00:00 12.5 3 Sudoeste 5 Nordeste 0 -- -- 82
2019-06-17 08:00:00 8.4 2 Noroeste 5 Noroeste 0 -- -- 95
2019-06-17 07:00:00 7.2 2 Este 6 Norte 0 -- -- 97
2019-06-17 06:00:00 6.3 4 Norte 8 Nordeste 0 -- -- 98
2019-06-17 05:00:00 6.9 2 Nordeste 8 Norte 0 -- -- 98
2019-06-17 04:00:00 7.7 5 Norte 9 Norte 0 -- -- 96
2019-06-17 03:00:00 8.7 3 Norte 8 Norte 0 -- -- 95
2019-06-17 02:00:00 9.7 6 Norte 9 Norte 0 -- -- 95
2019-06-17 01:00:00 10.9 4 Norte 9 Norte 0 -- -- 92
2019-06-17 00:00:00 12.8 5 Norte 11 Noroeste 0 -- -- 87
2019-06-16 23:00:00 14.1 5 Norte 21 Noroeste 0 -- -- 84
2019-06-16 22:00:00 16.2 12 Noroeste 27 Noroeste 0 -- -- 75
2019-06-16 21:00:00 17.6 15 Noroeste 27 Noroeste 0 -- -- 69
2019-06-16 20:00:00 19.5 11 Norte 28 Norte 0 -- -- 62
2019-06-16 19:00:00 21.8 18 Noroeste 32 Noroeste 0 -- -- 54
2019-06-16 18:00:00 26.2 10 Sur 22 Sur 0 -- -- 35
2019-06-16 17:00:00 24.2 10 Sur 23 Sudoeste 0 -- -- 35
2019-06-16 16:00:00 25.6 8 Sur 25 Sur 0 -- -- 37
2019-06-16 15:00:00 23.2 16 Sur 28 Sur 0 -- -- 40
2019-06-16 14:00:00 22 15 Sudoeste 27 Sur 0 -- -- 41
2019-06-16 13:00:00 21.4 13 Sudoeste 22 Sur 0 -- -- 45
2019-06-16 12:00:00 20 3 Este 6 Sur 0 -- -- 45
2019-06-16 11:00:00 16.4 4 Sur 8 Sur 0 -- -- 61
2019-06-16 10:00:00 13.6 3 Sudeste 6 Sudeste 0 -- -- 68
2019-06-16 09:00:00 7.8 3 Nordeste 8 Norte 0 -- -- 92
2019-06-16 08:00:00 5.4 3 Norte 6 Noroeste 0 -- -- 94
2019-06-16 07:00:00 4.4 4 Norte 6 Nordeste 0 -- -- 96
2019-06-16 06:00:00 3.9 3 Norte 6 Norte 0 -- -- 97
2019-06-16 05:00:00 4.5 4 Norte 6 Norte 0 -- -- 97
2019-06-16 04:00:00 5.1 4 Norte 9 Norte 0 -- -- 97
2019-06-16 03:00:00 6 5 Norte 9 Norte 0 -- -- 94
2019-06-16 02:00:00 6.9 4 Norte 10 Norte 0 -- -- 92
2019-06-16 01:00:00 7.9 5 Norte 9 Norte 0 -- -- 91
2019-06-16 00:00:00 9.3 6 Norte 13 Norte 0 -- -- 87
2019-06-15 23:00:00 11.8 8 Noroeste 28 Norte 0 -- -- 77
2019-06-15 22:00:00 12.6 15 Noroeste 30 Norte 0 -- -- 75
2019-06-15 21:00:00 14.1 16 Noroeste 30 Noroeste 0 -- -- 67
2019-06-15 20:00:00 15.4 16 Noroeste 30 Norte 0 -- -- 61
2019-06-15 19:00:00 18.5 14 Noroeste 26 Sur 0 -- -- 49
2019-06-15 18:00:00 20.7 16 Sur 32 Sur 0 -- -- 44
2019-06-15 17:00:00 20.1 15 Sur 24 Sur 0 -- -- 44
2019-06-15 16:00:00 19 9 Sudoeste 31 Sur 0 -- -- 45
2019-06-15 15:00:00 17.9 14 Sur 26 Sur 0 -- -- 47
2019-06-15 14:00:00 16.6 12 Sur 31 Sudoeste 0 -- -- 51
2019-06-15 13:00:00 15.1 14 Sur 29 Sudoeste 0 -- -- 51
2019-06-15 12:00:00 12.4 17 Sur 26 Sur 0 -- -- 62
2019-06-15 11:00:00 11.1 2 Noroeste 9 Noroeste 0 -- -- 74
2019-06-15 10:00:00 8.5 3 Noroeste 5 Norte 0 -- -- 83
2019-06-15 09:00:00 7.4 2 Noroeste 6 Norte 0 -- -- 86
2019-06-15 08:00:00 5.5 4 Norte 8 Norte 0 -- -- 95
2019-06-15 07:00:00 4.5 4 Norte 6 Norte 0 -- -- 96
2019-06-15 06:00:00 5.2 2 Nordeste 6 Norte 0 -- -- 96
2019-06-15 05:00:00 5.6 3 Norte 9 Norte 0 -- -- 93
2019-06-15 04:00:00 7 5 Noroeste 10 Norte 0 -- -- 92
2019-06-15 03:00:00 8.2 2 Nordeste 8 Oeste 0 -- -- 91
2019-06-15 02:00:00 8.3 2 Norte 11 Noroeste 0 -- -- 93
2019-06-15 01:00:00 8.2 10 Norte 20 Norte 0 -- -- 92
2019-06-15 00:00:00 9.7 10 Norte 24 Noroeste 0 -- -- 78
2019-06-14 23:00:00 9.7 5 Norte 13 Norte 0 -- -- 77
2019-06-14 22:00:00 11.1 10 Norte 25 Norte 0 -- -- 72
2019-06-14 21:00:00 12.5 10 Norte 22 Norte 0 -- -- 67
2019-06-14 20:00:00 13.6 8 Norte 26 Noroeste 0 -- -- 64
2019-06-14 19:00:00 14.1 12 Noroeste 28 Norte 0 -- -- 63
2019-06-14 18:00:00 14.9 18 Noroeste 32 Noroeste 0 -- -- 59
2019-06-14 17:00:00 16.5 19 Noroeste 39 Noroeste 0 -- -- 54
2019-06-14 16:00:00 16.7 20 Noroeste 34 Noroeste 0 -- -- 54
2019-06-14 15:00:00 18.8 18 Sur 39 Sur 0 -- -- 46
2019-06-14 14:00:00 17.7 20 Sur 40 Sur 0 -- -- 47
2019-06-14 13:00:00 16.6 23 Sur 35 Sur 0 -- -- 50
2019-06-14 12:00:00 16.5 17 Sur 32 Sur 0 -- -- 51
2019-06-14 11:00:00 13.6 4 Sur 9 Sur 0 -- -- 62
2019-06-14 10:00:00 13 4 Sudeste 10 Sudeste 0 -- -- 62
2019-06-14 09:00:00 8.2 2 Oeste 8 Norte 0 -- -- 78
2019-06-14 08:00:00 6.6 4 Norte 8 Norte 0 -- -- 84
2019-06-14 07:00:00 6.2 5 Norte 8 Nordeste 0 -- -- 86
2019-06-14 06:00:00 6.2 3 Nordeste 9 Norte 0 -- -- 86
2019-06-14 05:00:00 6.2 3 Norte 5 Nordeste 0 -- -- 88
2019-06-14 04:00:00 6 0 Calma 5 Norte 0 -- -- 91
2019-06-14 03:00:00 5.9 2 Norte 10 Norte 0 -- -- 91
2019-06-14 02:00:00 5.6 6 Norte 10 Norte 0 -- -- 92
2019-06-14 01:00:00 7.4 3 Norte 10 Nordeste 0 -- -- 88
2019-06-14 00:00:00 9.2 5 Norte 19 Noroeste 0 -- -- 80
2019-06-13 23:00:00 9.9 11 Noroeste 22 Noroeste 0 -- -- 77
2019-06-13 22:00:00 10 15 Noroeste 30 Norte 0 -- -- 77
2019-06-13 21:00:00 11 16 Norte 32 Noroeste 0 -- -- 72
2019-06-13 20:00:00 12.2 17 Noroeste 27 Norte 0 -- -- 66
2019-06-13 19:00:00 13 15 Noroeste 31 Noroeste 0 -- -- 64
2019-06-13 18:00:00 14.2 19 Noroeste 37 Norte 0 -- -- 62
2019-06-13 17:00:00 14.7 18 Norte 33 Noroeste 0 -- -- 59
2019-06-13 16:00:00 16.5 20 Norte 36 Noroeste 0 -- -- 53
2019-06-13 15:00:00 17.9 18 Sur 32 Sur 0 -- -- 48
2019-06-13 14:00:00 15.6 18 Sur 32 Sur 0 -- -- 52
2019-06-13 13:00:00 16.2 11 Sur 27 Sur 0 -- -- 51
2019-06-13 12:00:00 15.2 11 Sudoeste 23 Sudoeste 0 -- -- 50
2019-06-13 11:00:00 14.7 4 Sur 10 Sur 0 -- -- 54
2019-06-13 10:00:00 11.7 5 Sur 9 Sur 0 -- -- 66
2019-06-13 09:00:00 10.9 3 Nordeste 6 Norte 0 -- -- 65
2019-06-13 08:00:00 6.2 3 Nordeste 9 Nordeste 0 -- -- 87
2019-06-13 07:00:00 5.7 4 Nordeste 10 Sudoeste 0 -- -- 89
2019-06-13 06:00:00 6 5 Sudoeste 9 Sudoeste 0 -- -- 86
2019-06-13 05:00:00 6.6 2 Nordeste 6 Sudeste 0 -- -- 87
2019-06-13 04:00:00 7 4 Norte 13 Norte 0 -- -- 86
2019-06-13 03:00:00 7.3 3 Nordeste 14 Norte 0 -- -- 86
2019-06-13 02:00:00 7.7 8 Norte 14 Norte 0 -- -- 84
2019-06-13 01:00:00 8.2 5 Norte 12 Norte 0 -- -- 85
2019-06-13 00:00:00 8.9 5 Norte 15 Norte 0 -- -- 81
2019-06-12 23:00:00 9.3 10 Norte 21 Noroeste 0 -- -- 77
2019-06-12 22:00:00 9.6 14 Noroeste 27 Noroeste 0 -- -- 75
2019-06-12 21:00:00 10.9 14 Norte 30 Noroeste 0 -- -- 69
2019-06-12 20:00:00 12.1 9 Noroeste 26 Noroeste 0 -- -- 63
2019-06-12 19:00:00 15.1 13 Noroeste 32 Noroeste 0 -- -- 50
2019-06-12 18:00:00 15.6 14 Noroeste 28 Noroeste 0 -- -- 47
2019-06-12 17:00:00 16.2 13 Noroeste 26 Noroeste 0 -- -- 47
2019-06-12 16:00:00 16.1 10 Noroeste 27 Noroeste 0 -- -- 43
2019-06-12 15:00:00 15.5 12 Noroeste 27 Noroeste 0 -- -- 49
2019-06-12 14:00:00 14.6 8 Norte 21 Norte 0 -- -- 49
2019-06-12 13:00:00 13.4 5 Nordeste 17 Norte 0 -- -- 52
2019-06-12 12:00:00 10.7 5 Nordeste 15 Noroeste 0 -- -- 57
2019-06-12 11:00:00 10.6 8 Norte 16 Norte 0 -- -- 56
2019-06-12 10:00:00 11.3 4 Sur 9 Sudeste 0 -- -- 56
2019-06-12 09:00:00 6.8 0 Calma 5 Nordeste 0 -- -- 85
2019-06-12 08:00:00 5.7 4 Sudoeste 6 Sudoeste 0.4 -- -- 94
2019-06-12 07:00:00 4.2 0 Calma 5 Nordeste 0 -- -- 94
2019-06-12 06:00:00 3.9 0 Calma 5 Norte 0 -- -- 90
2019-06-12 05:00:00 3.8 3 Nordeste 9 Sur 0 -- -- 90
2019-06-12 04:00:00 3.9 0 Calma 7 Norte 0 -- -- 91
2019-06-12 03:00:00 5.4 2 Noroeste 9 Sudeste 0 -- -- 86
2019-06-12 02:00:00 5.4 3 Norte 10 Este 0 -- -- 84
2019-06-12 01:00:00 5.8 2 Noroeste 10 Nordeste 0 -- -- 85
2019-06-12 00:00:00 5.4 3 Norte 8 Norte 0 -- -- 88
2019-06-11 23:00:00 6.3 5 Este 19 Noroeste 0 -- -- 80
2019-06-11 22:00:00 8 5 Nordeste 15 Norte 0 -- -- 72
2019-06-11 21:00:00 8.8 8 Norte 15 Nordeste 0 -- -- 68
2019-06-11 20:00:00 9.2 5 Nordeste 17 Norte 0 -- -- 70
2019-06-11 19:00:00 9.4 9 Noroeste 22 Norte 0 -- -- 67
2019-06-11 18:00:00 9.6 8 Norte 26 Noroeste 0 -- -- 73
2019-06-11 17:00:00 9.6 10 Norte 28 Norte 0 -- -- 69
2019-06-11 16:00:00 9.4 19 Noroeste 33 Noroeste 0 -- -- 68
2019-06-11 15:00:00 10.4 15 Noroeste 31 Noroeste 0 -- -- 66
2019-06-11 14:00:00 10.4 16 Noroeste 30 Noroeste 0 -- -- 67
2019-06-11 13:00:00 9.6 9 Norte 31 Norte 0 -- -- 70
2019-06-11 12:00:00 10.4 11 Norte 26 Noroeste 0 -- -- 65
2019-06-11 11:00:00 7.6 10 Norte 23 Noroeste 0.2 -- -- 74
2019-06-11 10:00:00 7.5 9 Norte 21 Noroeste 0 -- -- 72
2019-06-11 09:00:00 8.4 10 Noroeste 23 Noroeste 0 -- -- 64
2019-06-11 08:00:00 5.5 8 Noroeste 27 Noroeste 0.2 -- -- 82
2019-06-11 07:00:00 5.3 4 Norte 22 Noroeste 0.4 -- -- 87
2019-06-11 06:00:00 5.7 10 Norte 23 Noroeste 0.8 -- -- 85
2019-06-11 05:00:00 6.1 6 Nordeste 17 Sur 0.4 -- -- 91
2019-06-11 04:00:00 5.6 3 Noroeste 8 Norte 0.2 -- -- 92
2019-06-11 03:00:00 6.2 3 Norte 9 Norte 0 -- -- 83
2019-06-11 02:00:00 6.8 5 Nordeste 18 Noroeste 0 -- -- 77
2019-06-11 01:00:00 7.3 9 Noroeste 19 Noroeste 0 -- -- 83
2019-06-11 00:00:00 7.1 9 Norte 18 Noroeste 0 -- -- 88
2019-06-10 23:00:00 8.1 6 Noroeste 16 Noroeste 0 -- -- 84
2019-06-10 22:00:00 8.8 9 Noroeste 18 Noroeste 0 -- -- 83
2019-06-10 21:00:00 9.6 8 Norte 21 Noroeste 0 -- -- 80
2019-06-10 20:00:00 11.5 8 Norte 23 Norte 0 -- -- 68
2019-06-10 19:00:00 12.7 12 Noroeste 26 Noroeste 0 -- -- 64
2019-06-10 18:00:00 14.8 11 Norte 26 Noroeste 0 -- -- 53
2019-06-10 17:00:00 15.1 14 Noroeste 26 Noroeste 0 -- -- 51
2019-06-10 16:00:00 15.9 14 Norte 27 Norte 0 -- -- 46
2019-06-10 15:00:00 15.8 10 Norte 26 Norte 0 -- -- 45
2019-06-10 14:00:00 14.4 12 Norte 24 Norte 0 -- -- 49
2019-06-10 13:00:00 15.2 13 Norte 24 Noroeste 0 -- -- 49
2019-06-10 12:00:00 14.7 6 Sur 17 Noroeste 0 -- -- 48
2019-06-10 11:00:00 13.3 6 Sur 9 Sur 0 -- -- 58
2019-06-10 10:00:00 12.4 4 Sudeste 6 Sur 0 -- -- 61
2019-06-10 09:00:00 8.8 2 Sur 6 Norte 0 -- -- 71
2019-06-10 08:00:00 4.4 4 Norte 6 Norte 0 -- -- 91
2019-06-10 07:00:00 1.4 3 Norte 7 Norte 0 -- -- 97
2019-06-10 06:00:00 1.9 5 Norte 8 Norte 0 -- -- 96
2019-06-10 05:00:00 2.8 5 Norte 8 Norte 0 -- -- 96
2019-06-10 04:00:00 3.6 4 Norte 8 Norte 0 -- -- 95
2019-06-10 03:00:00 4.4 3 Norte 6 Nordeste 0 -- -- 94
2019-06-10 02:00:00 5.4 2 Oeste 8 Norte 0 -- -- 92
2019-06-10 01:00:00 8.2 3 Nordeste 11 Noroeste 0 -- -- 81
2019-06-10 00:00:00 9.3 4 Noroeste 11 Norte 0 -- -- 78
2019-06-09 23:00:00 9.7 3 Noroeste 14 Norte 0 -- -- 76
2019-06-09 22:00:00 10 6 Norte 22 Noroeste 0 -- -- 74
2019-06-09 21:00:00 10.4 14 Noroeste 29 Noroeste 0 -- -- 74
2019-06-09 20:00:00 11 16 Noroeste 28 Noroeste 0 -- -- 73
2019-06-09 19:00:00 12.6 12 Noroeste 33 Noroeste 0 -- -- 66
2019-06-09 18:00:00 14.9 18 Noroeste 32 Noroeste 0 -- -- 60
2019-06-09 17:00:00 14 11 Norte 26 Noroeste 0 -- -- 61
2019-06-09 16:00:00 14.8 11 Noroeste 27 Noroeste 0 -- -- 59
2019-06-09 15:00:00 15.8 6 Norte 22 Sudoeste 0 -- -- 54
2019-06-09 14:00:00 14.9 6 Sudoeste 23 Noroeste 0 -- -- 58
2019-06-09 13:00:00 15.8 10 Norte 27 Norte 0 -- -- 51
2019-06-09 12:00:00 15.3 12 Norte 20 Norte 0 -- -- 53
2019-06-09 11:00:00 14.2 7 Sur 11 Sudoeste 0 -- -- 62
2019-06-09 10:00:00 12.2 3 Norte 8 Norte 0 -- -- 69
2019-06-09 09:00:00 8.7 4 Norte 10 Norte 0 -- -- 82
2019-06-09 08:00:00 6.8 6 Norte 10 Norte 0 -- -- 86
2019-06-09 07:00:00 7.1 0 Calma 6 Norte 0 -- -- 90
2019-06-09 06:00:00 7.2 4 Norte 8 Norte 0 -- -- 92
2019-06-09 05:00:00 7.3 2 Norte 6 Norte 0 -- -- 92
2019-06-09 04:00:00 6.7 4 Norte 6 Noroeste 0 -- -- 95
2019-06-09 03:00:00 6.9 3 Norte 8 Norte 0 -- -- 93
2019-06-09 02:00:00 7.3 4 Norte 10 Norte 0 -- -- 92
2019-06-09 01:00:00 8.5 5 Norte 10 Nordeste 0 -- -- 89
2019-06-09 00:00:00 9.4 5 Norte 14 Norte 0 -- -- 86
2019-06-08 23:00:00 9.8 6 Norte 22 Noroeste 0 -- -- 84
2019-06-08 22:00:00 10.5 7 Norte 19 Noroeste 0 -- -- 81
2019-06-08 21:00:00 11.1 11 Noroeste 17 Norte 0 -- -- 77
2019-06-08 20:00:00 11.2 9 Noroeste 29 Noroeste 0 -- -- 77
2019-06-08 19:00:00 11.6 17 Noroeste 36 Noroeste 0 -- -- 75
2019-06-08 18:00:00 14 21 Noroeste 39 Norte 0 -- -- 64
2019-06-08 17:00:00 19.5 8 Sudoeste 24 Sudoeste 0 -- -- 37
2019-06-08 16:00:00 18.6 10 Sudoeste 19 Sudoeste 0 -- -- 41
2019-06-08 15:00:00 18.4 6 Sur 16 Sudoeste 0 -- -- 40
2019-06-08 14:00:00 16.5 10 Sur 17 Sur 0 -- -- 47
2019-06-08 13:00:00 16.1 5 Sur 14 Sur 0 -- -- 50
2019-06-08 12:00:00 13.2 4 Sur 6 Sudeste 0 -- -- 64
2019-06-08 11:00:00 10.1 3 Sudeste 7 Sudeste 0 -- -- 69
2019-06-08 10:00:00 5 2 Nordeste 9 Nordeste 0 -- -- 83
2019-06-08 09:00:00 3.2 3 Norte 8 Nordeste 0 -- -- 90
2019-06-08 08:00:00 2.5 4 Nordeste 13 Este 0 -- -- 93
2019-06-08 07:00:00 2.8 4 Nordeste 9 Norte 0 -- -- 94
2019-06-08 06:00:00 3.1 6 Nordeste 12 Noroeste 0 -- -- 94
2019-06-08 05:00:00 3.5 4 Nordeste 8 Nordeste 0 -- -- 94
2019-06-08 04:00:00 3.3 6 Norte 9 Norte 0 -- -- 94
2019-06-08 03:00:00 3.3 4 Norte 9 Norte 0 -- -- 95
2019-06-08 02:00:00 3.4 8 Norte 11 Norte 0 -- -- 96
2019-06-08 01:00:00 3.8 4 Nordeste 10 Norte 0 -- -- 97
2019-06-08 00:00:00 5.1 3 Norte 8 Noroeste 0 -- -- 96
2019-06-07 23:00:00 6.3 3 Sur 5 Sur 0 -- -- 95
2019-06-07 22:00:00 6.4 3 Norte 7 Norte 0 -- -- 93
2019-06-07 21:00:00 6.8 0 Calma 32 Noroeste 2 -- -- 92
2019-06-07 20:00:00 8.8 13 Noroeste 35 Noroeste 0 -- -- 70
2019-06-07 19:00:00 9.2 10 Norte 28 Norte 0 -- -- 66
2019-06-07 18:00:00 8.1 20 Noroeste 38 Norte 0 -- -- 77
2019-06-07 17:00:00 9.2 6 Norte 17 Noroeste 0 -- -- 70
2019-06-07 16:00:00 7.1 14 Norte 30 Norte 0 -- -- 80
2019-06-07 15:00:00 7.8 17 Noroeste 39 Sur 0.6 -- -- 79
2019-06-07 14:00:00 10.4 23 Sur 36 Sur 0 -- -- 58
2019-06-07 13:00:00 9.1 18 Sur 41 Sudoeste 0 -- -- 61
2019-06-07 12:00:00 9.9 5 Sur 16 Sudoeste 0 -- -- 69
2019-06-07 11:00:00 8.1 13 Sur 28 Sudoeste 0 -- -- 72
2019-06-07 10:00:00 6.7 5 Oeste 32 Sur 0 -- -- 75
2019-06-07 09:00:00 5.5 22 Sur 34 Sur 0.4 -- -- 85
2019-06-07 08:00:00 5.4 19 Sudoeste 37 Sur 0 -- -- 83
2019-06-07 07:00:00 5.4 22 Sudoeste 38 Sudoeste 0 -- -- 84
2019-06-07 06:00:00 4.8 15 Sudoeste 36 Sur 0.2 -- -- 88
2019-06-07 05:00:00 4.9 12 Sudoeste 36 Sudoeste 0 -- -- 87
2019-06-07 04:00:00 4.3 6 Oeste 31 Sur 0.6 -- -- 89
2019-06-07 03:00:00 5.1 16 Sudoeste 41 Sudoeste 2.6 -- -- 87
2019-06-07 02:00:00 5.5 15 Sudoeste 50 Sudoeste 1.2 -- -- 89
2019-06-07 01:00:00 5.9 20 Sudoeste 48 Sur 1.8 -- -- 87
2019-06-07 00:00:00 6.5 19 Sudoeste 50 Sur 0.4 -- -- 86
2019-06-06 23:00:00 7.5 27 Sudoeste 57 Sudoeste 0.6 -- -- 80
2019-06-06 22:00:00 8.3 15 Sur 37 Sur 0 -- -- 78
2019-06-06 21:00:00 9 17 Sudoeste 70 Sur 1.6 -- -- 82
2019-06-06 20:00:00 8.8 23 Sudoeste 58 Sur 5.8 -- -- 89
2019-06-06 19:00:00 9.1 5 Norte 20 Norte 1.4 -- -- 90
2019-06-06 18:00:00 8.8 4 Sudoeste 17 Sur 3.6 -- -- 92
2019-06-06 17:00:00 9.7 6 Sudeste 35 Sudoeste 1.4 -- -- 85
2019-06-06 16:00:00 10.6 20 Sur 50 Sudoeste 0.4 -- -- 74
2019-06-06 15:00:00 13.7 16 Sur 35 Sudoeste 0 -- -- 52
2019-06-06 14:00:00 12.3 19 Sur 47 Sudeste 0 -- -- 59
2019-06-06 13:00:00 13.7 16 Sudeste 37 Sur 0 -- -- 55
2019-06-06 12:00:00 12.7 8 Sudeste 42 Nordeste 0 -- -- 54
2019-06-06 11:00:00 13.2 8 Sudeste 32 Este 0 -- -- 53
2019-06-06 10:00:00 9 5 Sudoeste 9 Sur 0 -- -- 72
2019-06-06 09:00:00 8.9 3 Sudeste 7 Sudeste 0 -- -- 70
2019-06-06 08:00:00 5.8 2 Oeste 9 Norte 0 -- -- 81
2019-06-06 07:00:00 2.2 6 Norte 9 Norte 0 -- -- 95
2019-06-06 06:00:00 2.1 3 Norte 6 Norte 0 -- -- 94
2019-06-06 05:00:00 1.9 4 Norte 9 Nordeste 0 -- -- 94
2019-06-06 04:00:00 2.6 3 Nordeste 8 Nordeste 0 -- -- 96
2019-06-06 03:00:00 2.4 5 Norte 12 Norte 0 -- -- 96
2019-06-06 02:00:00 2.3 5 Nordeste 7 Nordeste 0 -- -- 96
2019-06-06 01:00:00 2.5 4 Norte 9 Noroeste 0 -- -- 96
2019-06-06 00:00:00 3.4 4 Nordeste 8 Nordeste 0 -- -- 96
2019-06-05 23:00:00 3.9 3 Noroeste 7 Nordeste 0 -- -- 94
2019-06-05 22:00:00 4.9 6 Norte 32 Norte 0.6 -- -- 88
2019-06-05 21:00:00 6.8 5 Nordeste 10 Norte 0 -- -- 84
2019-06-05 20:00:00 6.2 6 Nordeste 31 Norte 0.2 -- -- 87
2019-06-05 19:00:00 7.3 4 Noroeste 26 Noroeste 0 -- -- 81
2019-06-05 18:00:00 6.2 22 Noroeste 45 Noroeste 0 -- -- 87
2019-06-05 17:00:00 9.5 13 Norte 38 Noroeste 0 -- -- 70
2019-06-05 16:00:00 10.3 16 Norte 29 Norte 0 -- -- 61
2019-06-05 15:00:00 8.3 24 Norte 40 Noroeste 0 -- -- 76
2019-06-05 14:00:00 9 15 Norte 40 Noroeste 0.2 -- -- 78
2019-06-05 13:00:00 9 12 Norte 25 Noroeste 0 -- -- 79
2019-06-05 12:00:00 8.5 6 Norte 24 Noroeste 0.6 -- -- 81
2019-06-05 11:00:00 7.2 7 Norte 18 Norte 0.6 -- -- 83
2019-06-05 10:00:00 6.9 5 Norte 11 Norte 0.4 -- -- 83
2019-06-05 09:00:00 7.4 9 Sudoeste 15 Sur 0.2 -- -- 85
2019-06-05 08:00:00 6.5 5 Sur 10 Sur 0 -- -- 93
2019-06-05 07:00:00 6.1 0 Calma 8 Sudoeste 0.6 -- -- 93
2019-06-05 06:00:00 6.3 4 Noroeste 13 Noroeste 0.2 -- -- 91
2019-06-05 05:00:00 6.5 3 Noroeste 8 Oeste 0 -- -- 88
2019-06-05 04:00:00 6.6 5 Norte 20 Norte 0 -- -- 85
2019-06-05 03:00:00 7.7 8 Norte 15 Noroeste 0 -- -- 79
2019-06-05 02:00:00 8.2 5 Nordeste 13 Noroeste 0 -- -- 77
2019-06-05 01:00:00 8.1 8 Nordeste 18 Noroeste 0 -- -- 79
2019-06-05 00:00:00 8.9 15 Noroeste 28 Noroeste 0 -- -- 72
2019-06-04 23:00:00 9.1 9 Noroeste 31 Norte 0 -- -- 77
2019-06-04 22:00:00 9.6 16 Noroeste 31 Norte 0 -- -- 76
2019-06-04 21:00:00 10.5 18 Norte 32 Noroeste 0 -- -- 74
2019-06-04 20:00:00 12.7 4 Norte 11 Sudoeste 0 -- -- 65
2019-06-04 19:00:00 13.6 7 Oeste 10 Oeste 0 -- -- 66
2019-06-04 18:00:00 15.9 4 Sur 20 Sur 0 -- -- 60
2019-06-04 17:00:00 13.8 10 Sur 35 Sur 0 -- -- 66
2019-06-04 16:00:00 13.3 12 Sudoeste 39 Sudoeste 0.4 -- -- 74
2019-06-04 15:00:00 13.4 23 Sur 51 Sur 0.2 -- -- 72
2019-06-04 14:00:00 15.2 20 Sur 38 Sur 0 -- -- 70
2019-06-04 13:00:00 14.4 15 Sur 41 Sur 0 -- -- 74
2019-06-04 12:00:00 13.1 11 Sudoeste 23 Sur 0 -- -- 80
2019-06-04 11:00:00 13.6 5 Sudoeste 32 Sur 0 -- -- 75
2019-06-04 10:00:00 12.1 14 Sur 39 Sur 0 -- -- 78
2019-06-04 09:00:00 13.1 13 Sudoeste 35 Sur 0 -- -- 70
2019-06-04 08:00:00 13.3 14 Sur 33 Sur 0 -- -- 68
2019-06-04 07:00:00 11.4 4 Oeste 29 Sudoeste 0 -- -- 77
2019-06-04 06:00:00 13.1 15 Sur 30 Sur 0 -- -- 73
2019-06-04 05:00:00 13.1 15 Sur 29 Sur 0 -- -- 74
2019-06-04 04:00:00 13.7 10 Sur 28 Sur 0 -- -- 76
2019-06-04 03:00:00 14 5 Oeste 27 Sur 0 -- -- 78
2019-06-04 02:00:00 15 11 Sudoeste 28 Sudoeste 0 -- -- 74
2019-06-04 01:00:00 15.4 8 Oeste 23 Sudoeste 0 -- -- 78
2019-06-04 00:00:00 16.8 13 Sudoeste 23 Sudoeste 0 -- -- 71
2019-06-03 23:00:00 16.8 5 Noroeste 23 Sur 0 -- -- 70
2019-06-03 22:00:00 17.5 8 Noroeste 25 Noroeste 0 -- -- 69
2019-06-03 21:00:00 19.2 6 Norte 25 Noroeste 0 -- -- 65
2019-06-03 20:00:00 21.1 8 Sudeste 37 Sur 0 -- -- 52
2019-06-03 19:00:00 23.7 13 Sur 41 Sur 0 -- -- 48
2019-06-03 18:00:00 25 14 Sur 38 Sur 0 -- -- 47
2019-06-03 17:00:00 25.6 13 Sur 32 Sur 0 -- -- 45
2019-06-03 16:00:00 25 13 Sur 34 Sur 0 -- -- 48
2019-06-03 15:00:00 24.3 13 Sur 30 Sur 0 -- -- 46
2019-06-03 14:00:00 23 12 Sur 31 Sur 0 -- -- 49
2019-06-03 13:00:00 21.7 22 Sur 38 Sur 0 -- -- 49
2019-06-03 12:00:00 21.1 10 Sudoeste 18 Sudoeste 0 -- -- 51
2019-06-03 11:00:00 19.2 2 Sudoeste 6 Norte 0 -- -- 53
2019-06-03 10:00:00 16.7 0 Calma 5 Sudeste 0 -- -- 59
2019-06-03 09:00:00 16.8 3 Sudeste 7 Norte 0 -- -- 62
2019-06-03 08:00:00 11.5 3 Norte 5 Norte 0 -- -- 82
2019-06-03 07:00:00 11 0 Calma 6 Norte 0 -- -- 81
2019-06-03 06:00:00 11.4 4 Norte 7 Norte 0 -- -- 79
2019-06-03 05:00:00 11.8 3 Norte 6 Nordeste 0 -- -- 77
2019-06-03 04:00:00 12.2 4 Norte 6 Norte 0 -- -- 74
2019-06-03 03:00:00 12.5 4 Noroeste 9 Norte 0 -- -- 77
2019-06-03 02:00:00 13.1 4 Norte 8 Norte 0 -- -- 69
2019-06-03 01:00:00 13.3 3 Norte 6 Noroeste 0 -- -- 71
2019-06-03 00:00:00 14.1 3 Norte 7 Norte 0 -- -- 64
2019-06-02 23:00:00 15.5 3 Norte 7 Oeste 0 -- -- 55
2019-06-02 22:00:00 18.3 4 Oeste 20 Norte 0 -- -- 49
2019-06-02 21:00:00 19.5 5 Noroeste 22 Sur 0 -- -- 43
2019-06-02 20:00:00 22.5 10 Sur 30 Sur 0 -- -- 34
2019-06-02 19:00:00 24.4 17 Sur 35 Sur 0 -- -- 28
2019-06-02 18:00:00 23.5 15 Sur 38 Sur 0 -- -- 30
2019-06-02 17:00:00 23.7 22 Sur 40 Sur 0 -- -- 28
2019-06-02 16:00:00 23.4 19 Sudoeste 34 Sur 0 -- -- 34
2019-06-02 15:00:00 23.9 22 Sur 38 Sur 0 -- -- 33
2019-06-02 14:00:00 24.8 18 Sur 32 Sur 0 -- -- 31
2019-06-02 13:00:00 23.9 14 Sudoeste 27 Sudoeste 0 -- -- 34
2019-06-02 12:00:00 23 5 Sur 10 Sur 0 -- -- 47
2019-06-02 11:00:00 20.2 3 Sudeste 10 Sur 0 -- -- 55
2019-06-02 10:00:00 17.4 3 Oeste 6 Sur 0 -- -- 59
2019-06-02 09:00:00 10.1 4 Norte 8 Norte 0 -- -- 85
2019-06-02 08:00:00 9.9 2 Nordeste 9 Norte 0 -- -- 91
2019-06-02 07:00:00 7.2 4 Norte 7 Norte 0 -- -- 96
2019-06-02 06:00:00 7.7 4 Norte 8 Norte 0 -- -- 96
2019-06-02 05:00:00 8.7 4 Norte 9 Norte 0 -- -- 95
2019-06-02 04:00:00 9.8 3 Nordeste 10 Norte 0 -- -- 92
2019-06-02 03:00:00 10.3 4 Norte 8 Norte 0 -- -- 91
2019-06-02 02:00:00 12 3 Nordeste 7 Nordeste 0 -- -- 84
2019-06-02 01:00:00 13.2 4 Norte 5 Noroeste 0 -- -- 83
2019-06-02 00:00:00 15.3 4 Norte 6 Norte 0 -- -- 73
2019-06-01 23:00:00 17.4 2 Sudeste 19 Norte 0 -- -- 71
2019-06-01 22:00:00 20.8 9 Noroeste 18 Noroeste 0 -- -- 48
2019-06-01 21:00:00 23.9 7 Norte 17 Norte 0 -- -- 41
2019-06-01 20:00:00 24.6 6 Noroeste 22 Noroeste 0 -- -- 39
2019-06-01 19:00:00 30.3 5 Oeste 16 Noroeste 0 -- -- 31
2019-06-01 18:00:00 31 7 Sur 24 Sudoeste 0 -- -- 28
2019-06-01 17:00:00 31 8 Sur 31 Sudoeste 0 -- -- 26
2019-06-01 16:00:00 29.8 14 Sur 30 Sur 0 -- -- 25
2019-06-01 15:00:00 28.5 18 Sur 35 Sur 0 -- -- 29
2019-06-01 14:00:00 28 14 Sur 30 Sur 0 -- -- 32
2019-06-01 13:00:00 26.8 24 Sur 41 Sur 0 -- -- 30
2019-06-01 12:00:00 25 3 Sur 6 Sudeste 0 -- -- 46
2019-06-01 11:00:00 22.4 3 Sur 7 Sur 0 -- -- 50
2019-06-01 10:00:00 20 3 Sudeste 5 Sudeste 0 -- -- 51
2019-06-01 09:00:00 15.6 2 Sudeste 8 Norte 0 -- -- 65
2019-06-01 08:00:00 10.2 5 Norte 8 Nordeste 0 -- -- 81
2019-06-01 07:00:00 7.1 3 Norte 6 Norte 0 -- -- 95
2019-06-01 06:00:00 7.4 4 Norte 6 Norte 0 -- -- 93
2019-06-01 05:00:00 7.9 3 Norte 7 Norte 0 -- -- 91
2019-06-01 04:00:00 8.7 3 Norte 7 Norte 0 -- -- 89
2019-06-01 03:00:00 9.7 0 Calma 10 Noroeste 0 -- -- 86
2019-06-01 02:00:00 11 6 Norte 8 Norte 0 -- -- 80
2019-06-01 01:00:00 12 4 Norte 6 Norte 0 -- -- 76
2019-06-01 00:00:00 14.1 5 Norte 10 Norte 0 -- -- 69
2019-05-31 23:00:00 16.6 4 Norte 8 Nordeste 0 -- -- 60
2019-05-31 22:00:00 19.9 0 Calma 26 Noroeste 0 -- -- 51
2019-05-31 21:00:00 23.5 9 Noroeste 24 Noroeste 0 -- -- 37
2019-05-31 20:00:00 23.9 5 Noroeste 19 Noroeste 0 -- -- 41
2019-05-31 19:00:00 29.4 5 Noroeste 17 Noroeste 0 -- -- 34
2019-05-31 18:00:00 31.7 6 Noroeste 19 Noroeste 0 -- -- 30
2019-05-31 17:00:00 26.6 7 Norte 15 Noroeste 0 -- -- 34
2019-05-31 16:00:00 31.6 4 Oeste 9 Oeste 0 -- -- 24
2019-05-31 15:00:00 30.5 7 Sur 14 Sur 0 -- -- 26
2019-05-31 14:00:00 28.8 6 Sudoeste 12 Sudoeste 0 -- -- 29
2019-05-31 13:00:00 28 5 Sur 9 Sur 0 -- -- 38
2019-05-31 12:00:00 25.5 3 Sudeste 6 Sudeste 0 -- -- 44
2019-05-31 11:00:00 21.5 3 Sudeste 6 Sur 0 -- -- 51
2019-05-31 10:00:00 18.9 3 Sur 6 Sur 0 -- -- 56
2019-05-31 09:00:00 16.6 2 Sudeste 4 Sudeste 0 -- -- 61
2019-05-31 08:00:00 10.2 3 Norte 6 Nordeste 0 -- -- 84
2019-05-31 07:00:00 6.1 2 Norte 8 Norte 0 -- -- 97
2019-05-31 06:00:00 6.6 4 Nordeste 6 Nordeste 0 -- -- 95
2019-05-31 05:00:00 7.3 2 Norte 7 Norte 0 -- -- 93
2019-05-31 04:00:00 8.4 4 Norte 8 Norte 0 -- -- 90
2019-05-31 03:00:00 9.5 5 Norte 7 Norte 0 -- -- 89
2019-05-31 02:00:00 11.1 4 Norte 14 Norte 0 -- -- 80
2019-05-31 01:00:00 11.5 7 Norte 10 Norte 0 -- -- 78
2019-05-31 00:00:00 13 4 Norte 12 Norte 0 -- -- 71
2019-05-30 23:00:00 14.7 4 Norte 11 Norte 0 -- -- 67
2019-05-30 22:00:00 17.2 4 Noroeste 14 Noroeste 0 -- -- 61
2019-05-30 21:00:00 21.2 7 Noroeste 26 Noroeste 0 -- -- 46
2019-05-30 20:00:00 22.6 12 Noroeste 26 Noroeste 0 -- -- 40
2019-05-30 19:00:00 27.2 12 Noroeste 27 Noroeste 0 -- -- 35
2019-05-30 18:00:00 27.9 13 Norte 23 Norte 0 -- -- 29
2019-05-30 17:00:00 27.6 12 Noroeste 26 Norte 0 -- -- 31
2019-05-30 16:00:00 28.2 9 Norte 25 Norte 0 -- -- 29
2019-05-30 15:00:00 29.2 5 Sudoeste 21 Noroeste 0 -- -- 31
2019-05-30 14:00:00 27.9 6 Este 13 Este 0 -- -- 33
2019-05-30 13:00:00 25.1 10 Sur 13 Sudoeste 0 -- -- 40
2019-05-30 12:00:00 23 3 Sur 5 Sur 0 -- -- 41
2019-05-30 11:00:00 19.6 2 Sudeste 6 Sur 0 -- -- 48
2019-05-30 10:00:00 16.8 3 Sudeste 5 Sudeste 0 -- -- 53
2019-05-30 09:00:00 13.8 2 Sudeste 6 Norte 0 -- -- 61
2019-05-30 08:00:00 7.7 4 Norte 7 Nordeste 0 -- -- 84
2019-05-30 07:00:00 4.9 4 Norte 7 Norte 0 -- -- 95
2019-05-30 06:00:00 5 4 Norte 7 Norte 0 -- -- 94
2019-05-30 05:00:00 5.4 3 Norte 6 Norte 0 -- -- 93
2019-05-30 04:00:00 6.7 4 Norte 8 Norte 0 -- -- 90
2019-05-30 03:00:00 7 4 Norte 8 Nordeste 0 -- -- 89
2019-05-30 02:00:00 8.2 5 Norte 9 Norte 0 -- -- 85
2019-05-30 01:00:00 10.1 6 Nordeste 11 Norte 0 -- -- 76
2019-05-30 00:00:00 10.9 6 Norte 12 Nordeste 0 -- -- 79
2019-05-29 23:00:00 12.8 3 Norte 9 Norte 0 -- -- 77
2019-05-29 22:00:00 16.1 4 Norte 23 Noroeste 0 -- -- 61
2019-05-29 21:00:00 18.6 9 Noroeste 18 Noroeste 0 -- -- 50
2019-05-29 20:00:00 19.5 8 Noroeste 24 Noroeste 0 -- -- 49
2019-05-29 19:00:00 24.5 8 Noroeste 21 Noroeste 0 -- -- 37
2019-05-29 18:00:00 24.4 11 Noroeste 28 Norte 0 -- -- 32
2019-05-29 17:00:00 24 12 Noroeste 26 Noroeste 0 -- -- 35
2019-05-29 16:00:00 23.6 13 Norte 24 Noroeste 0 -- -- 34
2019-05-29 15:00:00 24.4 8 Este 21 Este 0 -- -- 34
2019-05-29 14:00:00 22.9 8 Este 19 Nordeste 0 -- -- 37
2019-05-29 13:00:00 21.2 8 Norte 17 Norte 0 -- -- 42
2019-05-29 12:00:00 20.8 5 Oeste 9 Nordeste 0 -- -- 44
2019-05-29 11:00:00 18.1 3 Sudeste 6 Este 0 -- -- 49
2019-05-29 10:00:00 14.5 3 Sudeste 6 Sudeste 0 -- -- 56
2019-05-29 09:00:00 10.9 3 Este 8 Norte 0 -- -- 67
2019-05-29 08:00:00 5.9 4 Norte 6 Norte 0 -- -- 84
2019-05-29 07:00:00 2.5 4 Nordeste 6 Nordeste 0 -- -- 97
2019-05-29 06:00:00 2.5 3 Norte 8 Nordeste 0 -- -- 96
2019-05-29 05:00:00 3 4 Nordeste 8 Norte 0 -- -- 95
2019-05-29 04:00:00 3.4 4 Norte 8 Norte 0 -- -- 93
2019-05-29 03:00:00 4.1 5 Norte 9 Norte 0 -- -- 92
2019-05-29 02:00:00 5.1 4 Norte 13 Nordeste 0 -- -- 88
2019-05-29 01:00:00 6.7 7 Norte 12 Norte 0 -- -- 81
2019-05-29 00:00:00 7.7 9 Nordeste 14 Nordeste 0 -- -- 77
2019-05-28 23:00:00 8.6 9 Norte 12 Norte 0 -- -- 72
2019-05-28 22:00:00 10.6 5 Nordeste 18 Norte 0 -- -- 64
2019-05-28 21:00:00 12.1 9 Norte 27 Noroeste 0 -- -- 59
2019-05-28 20:00:00 12.7 15 Noroeste 32 Noroeste 0 -- -- 47
2019-05-28 19:00:00 16.1 17 Norte 32 Noroeste 0 -- -- 47
2019-05-28 18:00:00 16.8 17 Norte 30 Noroeste 0 -- -- 49
2019-05-28 17:00:00 17.5 12 Norte 32 Noroeste 0 -- -- 48
2019-05-28 16:00:00 17.2 13 Noroeste 30 Noroeste 0 -- -- 48
2019-05-28 15:00:00 16.1 14 Noroeste 34 Norte 0 -- -- 50
2019-05-28 14:00:00 15.6 19 Noroeste 32 Noroeste 0 -- -- 52
2019-05-28 13:00:00 14.9 15 Noroeste 32 Noroeste 0 -- -- 54
2019-05-28 12:00:00 13.8 16 Noroeste 30 Noroeste 0 -- -- 53
2019-05-28 11:00:00 14.5 4 Este 10 Nordeste 0 -- -- 49
2019-05-28 10:00:00 11.8 6 Nordeste 12 Nordeste 0 -- -- 56
2019-05-28 09:00:00 8 3 Norte 8 Norte 0 -- -- 71
2019-05-28 08:00:00 4.8 6 Norte 13 Nordeste 0 -- -- 83
2019-05-28 07:00:00 2.5 6 Nordeste 10 Nordeste 0 -- -- 94
2019-05-28 06:00:00 2.9 5 Norte 8 Nordeste 0 -- -- 93
2019-05-28 05:00:00 3.5 7 Norte 13 Nordeste 0 -- -- 89
2019-05-28 04:00:00 4.4 6 Norte 13 Nordeste 0 -- -- 86
2019-05-28 03:00:00 4.6 5 Norte 12 Nordeste 0 -- -- 87
2019-05-28 02:00:00 4.7 4 Norte 10 Norte 0 -- -- 86
2019-05-28 01:00:00 6.2 5 Norte 13 Norte 0 -- -- 81
2019-05-28 00:00:00 7.4 4 Norte 17 Nordeste 0 -- -- 80
2019-05-27 23:00:00 9.7 10 Norte 25 Norte 0 -- -- 73
2019-05-27 22:00:00 11.3 13 Noroeste 28 Noroeste 0 -- -- 62
2019-05-27 21:00:00 12.4 11 Noroeste 27 Noroeste 0 -- -- 68
2019-05-27 20:00:00 13.8 15 Norte 29 Noroeste 0 -- -- 64
2019-05-27 19:00:00 16.4 18 Noroeste 35 Noroeste 0 -- -- 56
2019-05-27 18:00:00 17.8 19 Noroeste 33 Noroeste 0 -- -- 53
2019-05-27 17:00:00 19.2 13 Noroeste 25 Noroeste 0 -- -- 49
2019-05-27 16:00:00 18.9 13 Norte 26 Noroeste 0 -- -- 51
2019-05-27 15:00:00 18.6 12 Norte 32 Nordeste 0 -- -- 52
2019-05-27 14:00:00 17.5 15 Noroeste 30 Noroeste 0 -- -- 57
2019-05-27 13:00:00 17.6 12 Noroeste 32 Noroeste 0 -- -- 58
2019-05-27 12:00:00 16.2 19 Noroeste 32 Noroeste 0 -- -- 64
2019-05-27 11:00:00 16.7 14 Noroeste 30 Noroeste 0 -- -- 63
2019-05-27 10:00:00 16.8 5 Sur 9 Sur 0 -- -- 65
2019-05-27 09:00:00 12.5 0 Calma 6 Este 0 -- -- 75
2019-05-27 08:00:00 10.3 2 Este 7 Norte 0 -- -- 82
2019-05-27 07:00:00 5.8 3 Norte 5 Norte 0 -- -- 96
2019-05-27 06:00:00 6.5 2 Nordeste 6 Norte 0 -- -- 93
2019-05-27 05:00:00 6.8 3 Norte 5 Norte 0 -- -- 95
2019-05-27 04:00:00 7.4 4 Nordeste 10 Norte 0 -- -- 91
2019-05-27 03:00:00 8.1 0 Calma 10 Nordeste 0 -- -- 90
2019-05-27 02:00:00 8.6 6 Norte 10 Norte 0 -- -- 86
2019-05-27 01:00:00 9.9 3 Noroeste 10 Nordeste 0 -- -- 84
2019-05-27 00:00:00 11.6 3 Norte 9 Noroeste 0 -- -- 75
2019-05-26 23:00:00 13.5 4 Norte 22 Noroeste 0 -- -- 65
2019-05-26 22:00:00 15.9 14 Noroeste 22 Noroeste 0 -- -- 56
2019-05-26 21:00:00 17.5 8 Norte 26 Noroeste 0 -- -- 55
2019-05-26 20:00:00 18.2 13 Noroeste 24 Noroeste 0 -- -- 55
2019-05-26 19:00:00 21.8 12 Noroeste 30 Noroeste 0 -- -- 43
2019-05-26 18:00:00 22.3 16 Noroeste 31 Noroeste 0 -- -- 40
2019-05-26 17:00:00 22.9 12 Noroeste 31 Noroeste 0 -- -- 42
2019-05-26 16:00:00 22.4 16 Noroeste 31 Noroeste 0 -- -- 46
2019-05-26 15:00:00 23.7 11 Norte 24 Norte 0 -- -- 40
2019-05-26 14:00:00 22.6 12 Norte 25 Norte 0 -- -- 38
2019-05-26 13:00:00 21.8 13 Noroeste 31 Norte 0 -- -- 40
2019-05-26 12:00:00 20.4 21 Noroeste 31 Noroeste 0 -- -- 45
2019-05-26 11:00:00 19.9 3 Sur 6 Sur 0 -- -- 50
2019-05-26 10:00:00 16 3 Sudeste 6 Este 0 -- -- 57
2019-05-26 09:00:00 13 3 Este 5 Este 0 -- -- 66
2019-05-26 08:00:00 7.1 3 Norte 6 Norte 0 -- -- 91
2019-05-26 07:00:00 4 3 Norte 6 Norte 0 -- -- 99
2019-05-26 06:00:00 3.8 3 Norte 5 Norte 0 -- -- 98
2019-05-26 05:00:00 4.3 4 Norte 8 Norte 0 -- -- 97
2019-05-26 04:00:00 5.3 3 Noroeste 6 Norte 0 -- -- 97
2019-05-26 03:00:00 5.9 3 Norte 8 Norte 0 -- -- 95
2019-05-26 02:00:00 6.9 5 Norte 8 Norte 0 -- -- 92
2019-05-26 01:00:00 7.7 3 Norte 8 Nordeste 0 -- -- 91
2019-05-26 00:00:00 9.7 5 Norte 12 Norte 0 -- -- 84
2019-05-25 23:00:00 11.3 4 Norte 28 Noroeste 0 -- -- 78
2019-05-25 22:00:00 13.1 15 Noroeste 32 Noroeste 0 -- -- 71
2019-05-25 21:00:00 15 16 Noroeste 32 Noroeste 0 -- -- 65
2019-05-25 20:00:00 16.3 16 Noroeste 25 Norte 0 -- -- 60
2019-05-25 19:00:00 19.2 13 Noroeste 33 Noroeste 0 -- -- 52
2019-05-25 18:00:00 19.5 17 Noroeste 31 Noroeste 0 -- -- 51
2019-05-25 17:00:00 19.5 17 Noroeste 36 Noroeste 0 -- -- 50
2019-05-25 16:00:00 19.8 17 Noroeste 35 Noroeste 0 -- -- 46
2019-05-25 15:00:00 19.5 17 Norte 33 Norte 0 -- -- 43
2019-05-25 14:00:00 18.9 14 Norte 27 Norte 0 -- -- 40
2019-05-25 13:00:00 18.6 11 Norte 36 Nordeste 0 -- -- 33
2019-05-25 12:00:00 17.9 8 Norte 15 Este 0 -- -- 37
2019-05-25 11:00:00 16.8 5 Sur 10 Sur 0 -- -- 46
2019-05-25 10:00:00 14.4 4 Sur 9 Sur 0 -- -- 55
2019-05-25 09:00:00 11.2 4 Sur 9 Sudoeste 0 -- -- 66
2019-05-25 08:00:00 8.2 2 Sudeste 5 Norte 0 -- -- 78
2019-05-25 07:00:00 2.6 3 Norte 6 Norte 0 -- -- 96
2019-05-25 06:00:00 2.8 6 Norte 8 Noroeste 0 -- -- 95
2019-05-25 05:00:00 3.7 4 Norte 6 Norte 0 -- -- 95
2019-05-25 04:00:00 4.7 0 Calma 6 Nordeste 0 -- -- 95
2019-05-25 03:00:00 5.2 3 Noroeste 7 Nordeste 0 -- -- 92
2019-05-25 02:00:00 6.2 3 Nordeste 9 Este 0 -- -- 90
2019-05-25 01:00:00 7.5 5 Nordeste 14 Norte 0 -- -- 80
2019-05-25 00:00:00 7.7 8 Norte 17 Nordeste 0 -- -- 80
2019-05-24 23:00:00 9.1 9 Norte 15 Norte 0 -- -- 73
2019-05-24 22:00:00 10.8 8 Norte 20 Noroeste 0 -- -- 66
2019-05-24 21:00:00 12.5 10 Nordeste 25 Nordeste 0 -- -- 58
2019-05-24 20:00:00 13.2 10 Norte 31 Noroeste 0 -- -- 57
2019-05-24 19:00:00 14.8 11 Norte 30 Noroeste 0 -- -- 52
2019-05-24 18:00:00 15.5 17 Noroeste 32 Noroeste 0 -- -- 51
2019-05-24 17:00:00 15.9 15 Norte 35 Norte 0 -- -- 51
2019-05-24 16:00:00 15.2 18 Noroeste 36 Noroeste 0 -- -- 57
2019-05-24 15:00:00 15.4 14 Norte 31 Noroeste 0 -- -- 51
2019-05-24 14:00:00 14.3 14 Norte 34 Noroeste 0 -- -- 53
2019-05-24 13:00:00 13.2 20 Noroeste 34 Noroeste 0 -- -- 57
2019-05-24 12:00:00 11.8 17 Noroeste 35 Noroeste 0 -- -- 60
2019-05-24 11:00:00 11.3 17 Norte 33 Noroeste 0 -- -- 65
2019-05-24 10:00:00 13.6 4 Sudeste 9 Sudeste 0 -- -- 60
2019-05-24 09:00:00 7.6 2 Nordeste 6 Nordeste 0 -- -- 74
2019-05-24 08:00:00 2 3 Norte 6 Norte 0 -- -- 95
2019-05-24 07:00:00 2 3 Norte 8 Noroeste 0 -- -- 93
2019-05-24 06:00:00 2.3 4 Norte 9 Norte 0 -- -- 92
2019-05-24 05:00:00 3.2 4 Norte 6 Este 0 -- -- 91
2019-05-24 04:00:00 4.6 4 Nordeste 14 Nordeste 0 -- -- 87
2019-05-24 03:00:00 7.4 8 Norte 27 Noroeste 0 -- -- 75
2019-05-24 02:00:00 7.8 7 Norte 22 Noroeste 0 -- -- 76
2019-05-24 01:00:00 9.2 10 Noroeste 21 Noroeste 0 -- -- 71
2019-05-24 00:00:00 10.2 9 Norte 20 Noroeste 0 -- -- 74
2019-05-23 23:00:00 10 5 Noroeste 12 Noroeste 0 -- -- 78
2019-05-23 22:00:00 10.7 5 Norte 24 Noroeste 0 -- -- 78
2019-05-23 21:00:00 12.6 14 Norte 46 Norte 0 -- -- 73
2019-05-23 20:00:00 14.4 17 Noroeste 32 Noroeste 0 -- -- 67
2019-05-23 19:00:00 15.4 15 Norte 30 Noroeste 0 -- -- 62
2019-05-23 18:00:00 16 18 Noroeste 32 Noroeste 0 -- -- 63
2019-05-23 17:00:00 19 14 Noroeste 32 Noroeste 0 -- -- 54
2019-05-23 16:00:00 18.6 16 Noroeste 33 Norte 0 -- -- 58
2019-05-23 15:00:00 20 9 Sur 28 Sur 0 -- -- 46
2019-05-23 14:00:00 18.1 7 Sudoeste 30 Norte 0 -- -- 55
2019-05-23 13:00:00 18.4 11 Norte 18 Norte 0 -- -- 55
2019-05-23 12:00:00 18 3 Sudoeste 8 Sur 0 -- -- 59
2019-05-23 11:00:00 17 3 Sudeste 5 Sur 0 -- -- 66
2019-05-23 10:00:00 14.5 3 Sur 6 Sur 0 -- -- 74
2019-05-23 09:00:00 11 3 Este 13 Sudoeste 0 -- -- 91
2019-05-23 08:00:00 8.1 2 Norte 6 Norte 0 -- -- 97
2019-05-23 07:00:00 7.2 3 Norte 4 Norte 0 -- -- 99
2019-05-23 06:00:00 7.5 2 Norte 5 Norte 0 -- -- 98
2019-05-23 05:00:00 7.7 2 Norte 5 Norte 0 -- -- 97
2019-05-23 04:00:00 8.6 3 Norte 6 Norte 0 -- -- 96
2019-05-23 03:00:00 9.5 2 Nordeste 8 Norte 0 -- -- 95
2019-05-23 02:00:00 10.6 3 Nordeste 8 Norte 0 -- -- 92
2019-05-23 01:00:00 11.4 5 Norte 8 Norte 0 -- -- 88
2019-05-23 00:00:00 12.3 4 Norte 12 Norte 0 -- -- 85
2019-05-22 23:00:00 14.9 4 Norte 27 Noroeste 0 -- -- 75
2019-05-22 22:00:00 16.1 15 Norte 26 Noroeste 0 -- -- 72
2019-05-22 21:00:00 17.8 6 Noroeste 21 Noroeste 0 -- -- 66
2019-05-22 20:00:00 18.7 9 Noroeste 23 Noroeste 0 -- -- 61
2019-05-22 19:00:00 20.6 8 Norte 23 Noroeste 0 -- -- 51
2019-05-22 18:00:00 20.4 14 Noroeste 24 Sur 0 -- -- 45
2019-05-22 17:00:00 24.1 12 Sur 26 Sudoeste 0 -- -- 33
2019-05-22 16:00:00 22.5 14 Sudoeste 37 Sur 0 -- -- 35
2019-05-22 15:00:00 21.3 22 Sudoeste 38 Sur 0 -- -- 41
2019-05-22 14:00:00 20.9 19 Sudoeste 30 Sur 0 -- -- 38
2019-05-22 13:00:00 20.8 14 Sudoeste 26 Sudoeste 0 -- -- 41
2019-05-22 12:00:00 20.2 7 Sur 24 Sudoeste 0 -- -- 47
2019-05-22 11:00:00 17.4 2 Sur 6 Sur 0 -- -- 59
2019-05-22 10:00:00 14.6 3 Sur 5 Este 0 -- -- 64
2019-05-22 09:00:00 12.2 3 Sudeste 6 Norte 0 -- -- 70
2019-05-22 08:00:00 6.2 3 Nordeste 6 Norte 0 -- -- 94
2019-05-22 07:00:00 3.8 3 Norte 6 Nordeste 0 -- -- 99
2019-05-22 06:00:00 4.2 4 Norte 5 Norte 0 -- -- 98
2019-05-22 05:00:00 4.7 3 Norte 6 Norte -- -- -- 97
2019-05-22 04:00:00 5.8 4 Norte 6 Norte 0 -- -- 96
2019-05-22 03:00:00 6.4 3 Noroeste 10 Norte 0 -- -- 94
2019-05-22 02:00:00 7.2 5 Norte 12 Noroeste 0 -- -- 92
2019-05-22 01:00:00 7.9 6 Norte 9 Norte 0 -- -- 94
2019-05-22 00:00:00 8.7 3 Nordeste 10 Norte 0 -- -- 90